Terminal Aerodrome Forecast
Issued by NWS

Home | Current Version | Previous Version | Graphics & Text | Print | Product List | Glossary On
Versions: 1 2 3 4 5 6 7 8 9 10 11 12 13 14 15
000
FTUS43 KICT 251937 AAA
TAFRSL
TAF AMD
KRSL 251937Z 2520/2618 24017KT P6SM OVC130
     FM252300 19009KT P6SM OVC120
     FM260300 19007KT P6SM OVC070
     FM260500 32013KT P6SM OVC050=

USA.gov is the U.S. government's official web portal to all federal, state and local government web resources and services.